This is the latest recevied weather packets stored in our database for station/object OK2ZAW-21. If no packets are shown the sender has not sent any weather packets the latest 10 day(s).
| Time | Temp. | Humidity | Pressure | Rain* | Wind** | Luminosity | Snow |
|---|---|---|---|---|---|---|---|
| 1788613909 | 18.89° C | 61% | 1022.5 hPa | - | - | 423 W/m² | - |
| 1788613598 | 18.33° C | 61% | 1022.4 hPa | - | - | 423 W/m² | - |
| 1788613287 | 19.44° C | 60% | 1022.5 hPa | - | - | 423 W/m² | - |
| 1788612975 | 18.33° C | 62% | 1022.7 hPa | - | - | 423 W/m² | - |
| 1788612664 | 17.78° C | 64% | 1022.5 hPa | - | - | 423 W/m² | - |
| 1788612042 | 18.89° C | 60% | 1022.3 hPa | - | - | 424 W/m² | - |
| 1788611730 | 19.44° C | 61% | 1022.5 hPa | - | - | 424 W/m² | - |
| 1788611419 | 18.89° C | 63% | 1022.5 hPa | - | - | 424 W/m² | - |
| 1788611108 | 18.89° C | 64% | 1022.7 hPa | - | - | 424 W/m² | - |
| 1788610823 | 18.89° C | 65% | 1022.6 hPa | - | - | 424 W/m² | - |
| 1788610485 | 18.33° C | 68% | 1022.7 hPa | - | - | 424 W/m² | - |
| 1788610174 | 18.89° C | 66% | 1022.5 hPa | - | - | 424 W/m² | - |
| 1788609863 | 18.89° C | 70% | 1022.6 hPa | - | - | 424 W/m² | - |
| 1788609551 | 18.89° C | 71% | 1022.6 hPa | - | - | 425 W/m² | - |
| 1788609240 | 18.33° C | 72% | 1022.7 hPa | - | - | 425 W/m² | - |
| 1788608929 | 19.44° C | 69% | 1022.7 hPa | - | - | 425 W/m² | - |
| 1788608618 | 18.89° C | 70% | 1022.8 hPa | - | - | 425 W/m² | - |
| 1788608306 | 18.33° C | 69% | 1022.6 hPa | - | - | 425 W/m² | - |
| 1788607995 | 18.89° C | 71% | 1022.7 hPa | - | - | 425 W/m² | - |
| 1788607684 | 18.33° C | 75% | 1022.7 hPa | - | - | 425 W/m² | - |
| 1788607373 | 18.89° C | 78% | 1022.8 hPa | - | - | 426 W/m² | - |
| 1788607062 | 18.33° C | 79% | 1022.7 hPa | - | - | 425 W/m² | - |
| 1788606439 | 17.78° C | 87% | 1022.7 hPa | - | - | 426 W/m² | - |
| 1788606128 | 17.22° C | 93% | 1022.8 hPa | - | - | 427 W/m² | - |
| 1788605817 | 17.78° C | 88% | 1022.7 hPa | - | - | 427 W/m² | - |
* Rain since midnight (hover to see other rain measurements)
** Current wind speed in m/s (hover to see current wind gust speed)